Time;durP1;ratioP1;P1;durP2;ratioP2;P2;SDS_P1;SDS_P2;PMS_P1;PMS_P2;Temp;Humidity;BMP_temperature;BMP_pressure;BME280_temperature;BME280_humidity;BME280_pressure;Samples;Min_cycle;Max_cycle;Signal;HPM_P1;HPM_P2
2021/05/29 00:00:00;;;;;;;7.03;4.28;;;13.40;99.90;;;;;;5073348;28;20375;-53
2021/05/29 00:02:25;;;;;;;7.40;3.90;;;13.40;99.90;;;;;;5055439;28;20388;-52
2021/05/29 00:04:51;;;;;;;8.20;4.60;;;13.30;99.90;;;;;;5052540;28;20401;-53
2021/05/29 00:07:17;;;;;;;7.00;3.95;;;13.20;99.90;;;;;;5052344;28;20851;-53
2021/05/29 00:09:43;;;;;;;8.65;4.20;;;13.10;99.90;;;;;;5052709;28;20388;-53
2021/05/29 00:12:10;;;;;;;9.60;4.57;;;13.00;99.90;;;;;;5052919;28;20427;-52
2021/05/29 00:14:38;;;;;;;6.90;3.83;;;12.90;99.90;;;;;;5052372;28;20385;-53
2021/05/29 00:17:09;;;;;;;9.00;4.10;;;13.00;99.90;;;;;;5052409;28;20384;-53
2021/05/29 00:19:35;;;;;;;7.68;4.10;;;13.10;99.90;;;;;;5051879;28;20409;-53
2021/05/29 00:22:03;;;;;;;6.55;3.70;;;13.20;99.90;;;;;;5052688;28;20427;-53
2021/05/29 00:24:28;;;;;;;6.68;4.10;;;13.30;99.90;;;;;;5051695;28;20436;-52
2021/05/29 00:26:54;;;;;;;7.60;4.43;;;13.40;99.90;;;;;;5052628;28;20783;-52
2021/05/29 00:29:20;;;;;;;7.18;4.30;;;13.30;99.90;;;;;;5051761;28;20389;-55
2021/05/29 00:31:45;;;;;;;9.00;4.27;;;13.30;99.90;;;;;;5052361;28;20542;-54
2021/05/29 00:34:11;;;;;;;8.40;4.57;;;13.30;99.90;;;;;;5034274;28;20389;-61
2021/05/29 00:36:38;;;;;;;7.50;4.50;;;13.40;99.90;;;;;;5051699;28;20409;-52
2021/05/29 00:39:07;;;;;;;9.98;4.88;;;13.50;99.90;;;;;;5052259;28;20370;-53
2021/05/29 00:41:33;;;;;;;9.75;4.70;;;13.60;99.90;;;;;;5051091;28;20416;-53
2021/05/29 00:43:59;;;;;;;8.23;4.90;;;13.60;99.90;;;;;;5052330;28;20409;-53
2021/05/29 00:46:25;;;;;;;8.67;4.67;;;13.60;99.90;;;;;;5051163;28;20747;-52
2021/05/29 00:48:52;;;;;;;6.90;4.68;;;13.50;99.90;;;;;;5052089;28;20803;-53
2021/05/29 00:51:19;;;;;;;11.77;4.63;;;13.40;99.90;;;;;;5050737;28;20390;-53
2021/05/29 00:53:46;;;;;;;8.93;4.50;;;13.30;99.90;;;;;;5051837;28;20447;-53
2021/05/29 00:56:13;;;;;;;8.90;4.60;;;13.20;99.90;;;;;;5051613;28;20381;-60
2021/05/29 00:58:40;;;;;;;8.65;5.00;;;13.10;99.90;;;;;;5051919;28;20500;-53
2021/05/29 01:01:06;;;;;;;7.25;4.63;;;13.00;99.90;;;;;;5051816;28;20374;-53
2021/05/29 01:03:36;;;;;;;8.02;4.95;;;12.90;99.90;;;;;;5051031;28;20408;-52
2021/05/29 01:06:03;;;;;;;7.82;5.20;;;12.90;99.90;;;;;;5051673;28;20381;-55
2021/05/29 01:08:29;;;;;;;7.68;4.80;;;12.90;99.90;;;;;;5051054;28;20370;-53
2021/05/29 01:10:55;;;;;;;9.10;5.37;;;12.90;99.90;;;;;;5051695;28;20889;-53
2021/05/29 01:13:27;;;;;;;8.68;5.22;;;12.70;99.90;;;;;;5050781;28;20421;-53
2021/05/29 01:15:55;;;;;;;8.75;5.32;;;12.50;99.90;;;;;;5051736;28;20381;-53
2021/05/29 01:18:21;;;;;;;10.30;5.38;;;12.40;99.90;;;;;;5050215;28;20409;-53
2021/05/29 01:20:47;;;;;;;8.70;5.40;;;12.50;99.90;;;;;;5033701;28;20442;-56
2021/05/29 01:23:14;;;;;;;9.18;5.30;;;12.60;99.90;;;;;;5051213;28;20405;-60
2021/05/29 01:25:47;;;;;;;8.98;4.95;;;12.60;99.90;;;;;;5050918;28;20389;-53
2021/05/29 01:28:16;;;;;;;8.43;5.50;;;12.70;99.90;;;;;;5051056;28;20446;-60
2021/05/29 01:30:48;;;;;;;10.98;5.20;;;12.80;99.90;;;;;;5051210;28;20871;-53
2021/05/29 01:33:17;;;;;;;9.45;5.65;;;12.70;99.90;;;;;;5051080;28;20385;-61
2021/05/29 01:35:44;;;;;;;8.63;5.15;;;12.80;99.90;;;;;;5051043;28;20381;-53
2021/05/29 01:38:11;;;;;;;9.70;5.30;;;12.80;99.90;;;;;;5066659;28;20373;-52
2021/05/29 01:40:38;;;;;;;8.00;5.10;;;12.80;99.90;;;;;;5050156;28;20393;-53
2021/05/29 01:43:04;;;;;;;8.52;5.30;;;12.80;99.90;;;;;;5051309;28;20871;-52
2021/05/29 01:45:30;;;;;;;9.18;4.93;;;12.70;99.90;;;;;;5050053;28;20782;-52
2021/05/29 01:47:56;;;;;;;8.30;5.05;;;12.80;99.90;;;;;;5033001;28;20397;-52
2021/05/29 01:50:23;;;;;;;8.18;5.13;;;12.80;99.90;;;;;;5032383;28;20898;-52
2021/05/29 01:52:50;;;;;;;7.63;4.75;;;12.80;99.90;;;;;;5051059;28;20386;-52
2021/05/29 01:55:17;;;;;;;7.80;5.07;;;12.90;99.90;;;;;;5050428;28;20386;-61
2021/05/29 01:57:44;;;;;;;7.60;4.83;;;12.90;99.90;;;;;;5050738;28;20377;-52
2021/05/29 02:00:11;;;;;;;8.40;5.10;;;12.90;99.90;;;;;;5050654;28;20382;-53
2021/05/29 02:02:37;;;;;;;10.07;5.70;;;12.90;99.90;;;;;;5049913;28;20384;-53
2021/05/29 02:05:18;;;;;;;9.75;5.55;;;11.70;99.90;;;;;;5049446;28;20421;-52
2021/05/29 02:07:44;;;;;;;10.38;6.10;;;12.90;99.90;;;;;;5050787;28;20381;-52
2021/05/29 02:10:15;;;;;;;11.35;5.50;;;12.90;99.90;;;;;;5050577;28;20412;-52
2021/05/29 02:12:44;;;;;;;9.27;5.65;;;12.90;99.90;;;;;;5050215;28;20461;-53
2021/05/29 02:15:13;;;;;;;10.02;6.07;;;12.80;99.90;;;;;;5050677;28;20720;-53
2021/05/29 02:17:39;;;;;;;10.75;6.50;;;12.80;99.90;;;;;;5049379;28;20389;-53
2021/05/29 02:20:07;;;;;;;10.57;5.85;;;12.70;99.90;;;;;;5049601;28;20443;-54
2021/05/29 02:22:33;;;;;;;12.35;5.68;;;12.70;99.90;;;;;;5049773;28;20390;-53
2021/05/29 02:25:00;;;;;;;8.35;5.47;;;12.60;99.90;;;;;;5050197;28;20397;-54
2021/05/29 02:27:26;;;;;;;11.75;5.70;;;12.50;99.90;;;;;;5049537;28;20471;-54
2021/05/29 02:29:52;;;;;;;10.05;6.30;;;12.50;99.90;;;;;;5050092;28;20401;-53
2021/05/29 02:32:18;;;;;;;8.65;6.10;;;12.40;99.90;;;;;;5049321;28;20875;-53
2021/05/29 02:34:44;;;;;;;9.97;6.10;;;12.40;99.90;;;;;;5050152;28;20389;-55
2021/05/29 02:37:09;;;;;;;8.65;5.25;;;12.30;99.90;;;;;;5050291;28;20445;-53
2021/05/29 02:39:35;;;;;;;10.80;6.03;;;12.30;99.90;;;;;;5049303;28;20382;-54
2021/05/29 02:42:01;;;;;;;10.65;5.90;;;12.30;99.90;;;;;;5050062;28;20855;-55
2021/05/29 02:44:26;;;;;;;9.77;6.03;;;12.20;99.90;;;;;;5049253;28;20941;-53
2021/05/29 02:46:53;;;;;;;9.48;5.93;;;12.10;99.90;;;;;;5049709;28;20473;-53
2021/05/29 02:49:18;;;;;;;10.40;6.20;;;11.90;99.90;;;;;;5049077;28;20397;-56
2021/05/29 02:51:44;;;;;;;11.07;6.60;;;11.80;99.90;;;;;;5049856;28;20462;-53
2021/05/29 02:54:10;;;;;;;9.90;6.28;;;11.80;99.90;;;;;;5049590;28;20393;-53
2021/05/29 02:56:36;;;;;;;10.80;7.00;;;11.60;99.90;;;;;;5049158;28;21086;-55
2021/05/29 02:59:02;;;;;;;11.10;5.83;;;11.50;99.90;;;;;;5049728;28;20420;-53
2021/05/29 03:01:27;;;;;;;10.80;6.60;;;11.40;99.90;;;;;;5049169;28;20377;-53
2021/05/29 03:03:53;;;;;;;9.77;6.60;;;11.50;99.90;;;;;;5049828;28;20761;-54
2021/05/29 03:06:19;;;;;;;9.90;5.90;;;11.40;99.90;;;;;;5048775;28;20385;-51
2021/05/29 03:08:44;;;;;;;10.70;6.40;;;11.80;99.90;;;;;;5049412;28;20413;-52
2021/05/29 03:11:11;;;;;;;11.13;6.75;;;11.00;99.90;;;;;;5049831;28;20762;-52
2021/05/29 03:13:37;;;;;;;11.20;6.47;;;10.90;99.90;;;;;;5048734;28;20690;-52
2021/05/29 03:16:03;;;;;;;12.00;7.00;;;10.90;99.90;;;;;;5049613;28;20867;-52
2021/05/29 03:18:30;;;;;;;11.02;6.93;;;10.80;99.90;;;;;;5048592;28;20751;-52
2021/05/29 03:20:57;;;;;;;10.68;6.55;;;10.80;99.90;;;;;;5049563;28;20422;-52
2021/05/29 03:23:24;;;;;;;11.80;7.05;;;10.60;99.90;;;;;;5048949;28;20430;-52
2021/05/29 03:25:50;;;;;;;9.82;6.47;;;10.70;99.90;;;;;;5049570;28;20386;-51
2021/05/29 03:28:16;;;;;;;9.98;6.40;;;10.70;99.90;;;;;;5049255;28;20392;-59
2021/05/29 03:30:42;;;;;;;10.47;6.60;;;10.80;99.90;;;;;;5032025;28;20488;-52
2021/05/29 03:33:08;;;;;;;9.43;6.50;;;10.80;99.90;;;;;;5053527;28;20389;-52
2021/05/29 03:35:34;;;;;;;10.07;6.10;;;10.90;99.90;;;;;;5052806;28;20470;-52
2021/05/29 03:37:59;;;;;;;10.70;6.15;;;11.00;99.90;;;;;;5053389;28;20467;-52
2021/05/29 03:40:25;;;;;;;8.70;6.07;;;11.10;99.90;;;;;;5052746;28;20386;-53
2021/05/29 03:42:51;;;;;;;8.80;5.80;;;11.10;99.90;;;;;;5053310;28;20419;-53
2021/05/29 03:45:18;;;;;;;9.60;6.15;;;11.10;99.90;;;;;;5052850;28;20873;-60
2021/05/29 03:47:45;;;;;;;11.20;6.45;;;11.10;99.90;;;;;;5052931;28;20958;-52
2021/05/29 03:50:14;;;;;;;10.00;6.00;;;11.10;99.90;;;;;;5053557;28;20388;-52
2021/05/29 03:52:44;;;;;;;11.48;6.32;;;11.10;99.90;;;;;;5034736;28;20881;-52
2021/05/29 03:55:11;;;;;;;11.07;6.68;;;11.10;99.90;;;;;;5053057;28;20484;-58
2021/05/29 03:57:37;;;;;;;12.55;7.10;;;10.90;99.90;;;;;;5052761;28;20385;-56
2021/05/29 04:00:06;;;;;;;10.45;6.50;;;11.00;99.90;;;;;;5053007;28;20380;-52
2021/05/29 04:02:31;;;;;;;10.80;6.90;;;11.10;99.90;;;;;;5052024;28;20473;-52
2021/05/29 04:04:57;;;;;;;10.35;6.50;;;11.10;99.90;;;;;;5052981;28;20488;-52
2021/05/29 04:07:22;;;;;;;10.05;6.38;;;11.10;99.90;;;;;;5052469;28;20385;-52
2021/05/29 04:09:48;;;;;;;11.70;7.27;;;11.20;99.90;;;;;;5052822;28;20456;-52
2021/05/29 04:12:14;;;;;;;11.00;6.72;;;11.20;99.90;;;;;;5052932;28;20385;-52
2021/05/29 04:14:40;;;;;;;11.90;6.93;;;11.10;99.90;;;;;;5052084;28;20378;-52
2021/05/29 04:17:05;;;;;;;10.25;6.70;;;11.00;99.90;;;;;;5052947;28;20435;-56
2021/05/29 04:19:31;;;;;;;13.02;7.90;;;11.00;99.90;;;;;;5033742;28;20413;-52
2021/05/29 04:21:57;;;;;;;11.60;6.33;;;10.90;99.90;;;;;;5052875;28;20381;-53
2021/05/29 04:24:23;;;;;;;10.90;7.13;;;11.00;99.90;;;;;;5051747;28;20491;-51
2021/05/29 04:26:49;;;;;;;11.63;7.35;;;11.00;99.90;;;;;;5052407;28;20811;-52
2021/05/29 04:29:14;;;;;;;13.80;7.30;;;11.10;99.90;;;;;;5052461;28;20377;-52
2021/05/29 04:31:40;;;;;;;10.70;7.10;;;11.20;99.90;;;;;;5051878;28;20382;-53
2021/05/29 04:34:06;;;;;;;14.38;6.80;;;11.30;99.90;;;;;;5051948;28;20882;-54
2021/05/29 04:36:31;;;;;;;11.63;6.63;;;11.50;99.90;;;;;;5051572;28;20396;-54
2021/05/29 04:38:57;;;;;;;10.25;6.50;;;11.60;99.90;;;;;;5052147;28;20405;-53
2021/05/29 04:41:23;;;;;;;10.90;7.20;;;11.70;99.90;;;;;;5051015;28;20859;-54
2021/05/29 04:43:48;;;;;;;14.27;7.18;;;11.80;99.90;;;;;;5052190;28;20894;-53
2021/05/29 04:46:14;;;;;;;12.77;6.70;;;12.00;99.90;;;;;;5033732;28;20480;-53
2021/05/29 04:48:40;;;;;;;10.25;5.97;;;12.20;99.90;;;;;;5051584;28;20385;-53
2021/05/29 04:51:15;;;;;;;13.70;6.30;;;12.40;99.90;;;;;;5034245;28;20844;-53
2021/05/29 04:53:46;;;;;;;12.00;6.97;;;12.80;99.90;;;;;;5051401;28;20385;-59
2021/05/29 04:56:12;;;;;;;11.82;5.63;;;13.90;99.90;;;;;;5052608;28;20374;-53
2021/05/29 04:58:38;;;;;;;10.80;5.60;;;15.40;99.90;;;;;;5051258;28;20392;-53
2021/05/29 05:01:08;;;;;;;10.32;5.88;;;17.60;99.90;;;;;;5051562;28;20377;-54
2021/05/29 05:03:35;;;;;;;8.50;5.27;;;19.60;99.90;;;;;;5050817;28;20420;-55
2021/05/29 05:06:01;;;;;;;9.23;5.43;;;21.00;99.90;;;;;;5051591;28;20531;-52
2021/05/29 05:08:26;;;;;;;10.13;5.40;;;21.50;99.70;;;;;;5050818;28;20460;-52
2021/05/29 05:10:55;;;;;;;9.25;5.45;;;21.80;98.30;;;;;;5051888;28;20381;-52
2021/05/29 05:13:22;;;;;;;8.90;5.38;;;22.40;96.40;;;;;;5050858;28;20889;-53
2021/05/29 05:15:47;;;;;;;8.88;5.47;;;23.40;92.90;;;;;;5051693;28;20393;-53
2021/05/29 05:18:13;;;;;;;7.95;5.22;;;23.70;90.10;;;;;;5051619;28;20409;-53
2021/05/29 05:20:38;;;;;;;7.82;5.10;;;23.20;91.00;;;;;;5050648;28;20373;-53
2021/05/29 05:23:05;;;;;;;8.40;4.68;;;23.70;90.40;;;;;;5033425;28;20465;-53
2021/05/29 05:25:32;;;;;;;7.88;4.90;;;24.00;89.10;;;;;;5050978;28;20385;-53
2021/05/29 05:27:58;;;;;;;7.95;5.30;;;24.50;84.60;;;;;;5051492;28;20385;-53
2021/05/29 05:30:25;;;;;;;7.85;5.10;;;23.50;84.80;;;;;;5050558;28;20897;-53
2021/05/29 05:32:51;;;;;;;7.30;5.10;;;23.40;85.10;;;;;;5051493;28;20377;-53
2021/05/29 05:35:20;;;;;;;8.38;4.95;;;22.90;88.50;;;;;;5050998;28;20515;-60
2021/05/29 05:37:46;;;;;;;9.60;5.27;;;23.80;86.40;;;;;;5070623;28;20411;-53
2021/05/29 05:40:12;;;;;;;9.38;5.13;;;24.40;80.70;;;;;;5059972;28;20772;-53
2021/05/29 05:42:38;;;;;;;7.83;4.93;;;23.70;82.50;;;;;;5060926;28;20380;-53
2021/05/29 05:45:05;;;;;;;9.13;4.80;;;24.00;82.50;;;;;;5060223;28;20460;-53
2021/05/29 05:47:31;;;;;;;7.70;4.70;;;24.80;79.10;;;;;;5058491;28;20394;-53
2021/05/29 05:49:57;;;;;;;7.90;4.90;;;24.70;77.40;;;;;;5061570;28;20471;-54
2021/05/29 05:52:23;;;;;;;9.25;4.80;;;25.00;76.70;;;;;;5042868;28;20435;-54
2021/05/29 05:54:49;;;;;;;9.10;4.60;;;26.00;71.70;;;;;;5056377;28;20388;-54
2021/05/29 05:57:15;;;;;;;9.63;4.70;;;26.20;70.20;;;;;;5058174;28;20384;-54
2021/05/29 05:59:42;;;;;;;8.10;4.30;;;26.20;68.90;;;;;;5038186;28;20420;-53
2021/05/29 06:02:08;;;;;;;7.43;4.90;;;26.20;66.50;;;;;;5059404;28;20389;-53
2021/05/29 06:04:34;;;;;;;7.95;4.85;;;25.70;67.20;;;;;;5060993;28;20401;-54
2021/05/29 06:06:59;;;;;;;7.28;4.45;;;24.60;70.00;;;;;;5058475;28;20490;-53
2021/05/29 06:09:25;;;;;;;6.80;4.50;;;25.50;68.80;;;;;;5058051;28;20539;-53
2021/05/29 06:11:51;;;;;;;8.30;4.30;;;26.40;67.10;;;;;;5058374;28;20380;-53
2021/05/29 06:19:47;;;;;;;8.40;4.18;;;29.10;56.90;;;;;;5056889;28;20972;-56
2021/05/29 06:22:12;;;;;;;6.63;4.20;;;29.30;54.70;;;;;;5058331;28;20409;-54
2021/05/29 06:24:38;;;;;;;7.00;3.70;;;29.10;54.10;;;;;;5061109;28;20877;-54
2021/05/29 06:27:04;;;;;;;7.17;4.10;;;29.00;52.10;;;;;;5058376;28;20388;-54
2021/05/29 06:29:30;;;;;;;9.60;4.50;;;28.40;54.00;;;;;;5057859;28;20468;-54
2021/05/29 06:31:55;;;;;;;8.00;4.40;;;28.40;54.20;;;;;;5057948;28;20905;-53
2021/05/29 06:34:21;;;;;;;11.53;4.40;;;28.70;53.00;;;;;;5057799;28;20385;-55
2021/05/29 06:36:47;;;;;;;6.23;3.90;;;28.20;53.60;;;;;;5059781;28;20462;-54
2021/05/29 06:39:13;;;;;;;6.67;4.03;;;27.60;54.20;;;;;;5059105;28;20467;-54
2021/05/29 06:41:40;;;;;;;6.35;3.72;;;26.60;55.40;;;;;;5057491;28;20459;-54
2021/05/29 06:44:10;;;;;;;7.50;4.00;;;26.50;56.70;;;;;;5055451;28;20459;-53
2021/05/29 06:46:37;;;;;;;7.70;4.00;;;26.70;56.60;;;;;;5057070;28;20771;-53
2021/05/29 06:49:04;;;;;;;9.43;3.70;;;27.00;55.70;;;;;;5054927;28;20940;-54
2021/05/29 06:59:37;;;;;;;6.80;3.80;;;28.40;52.90;;;;;;5055117;28;20427;-54
2021/05/29 07:02:04;;;;;;;7.60;3.60;;;28.50;52.00;;;;;;5058132;28;20386;-54
2021/05/29 07:04:29;;;;;;;8.00;3.95;;;29.30;50.00;;;;;;5056562;28;20407;-54
2021/05/29 07:06:55;;;;;;;7.13;3.67;;;28.50;50.90;;;;;;5060306;28;20384;-53
2021/05/29 07:09:20;;;;;;;7.13;3.50;;;28.60;50.80;;;;;;5057733;28;20914;-62
2021/05/29 07:11:47;;;;;;;6.73;3.47;;;28.50;51.40;;;;;;5058527;28;20444;-54
2021/05/29 07:14:13;;;;;;;7.72;3.80;;;28.60;51.20;;;;;;5060083;28;20441;-54
2021/05/29 07:16:40;;;;;;;6.38;3.53;;;28.60;50.20;;;;;;5057651;28;20389;-54
2021/05/29 07:19:05;;;;;;;5.90;3.10;;;28.80;49.70;;;;;;5058833;28;20412;-54
2021/05/29 07:21:34;;;;;;;5.90;2.60;;;29.60;47.70;;;;;;5057629;28;20963;-54
2021/05/29 07:23:59;;;;;;;5.50;2.80;;;29.90;46.60;;;;;;5055336;28;20403;-54
2021/05/29 07:26:25;;;;;;;5.40;2.50;;;29.90;45.30;;;;;;5048428;28;20397;-54
2021/05/29 07:28:52;;;;;;;6.60;2.73;;;30.30;45.00;;;;;;5049074;28;20860;-53
2021/05/29 07:31:18;;;;;;;5.43;2.80;;;30.10;44.90;;;;;;5049458;28;20484;-54
2021/05/29 07:33:44;;;;;;;7.50;2.80;;;30.70;44.10;;;;;;5047391;28;20381;-54
2021/05/29 07:36:10;;;;;;;5.45;2.72;;;31.00;42.90;;;;;;5056754;28;20874;-54
2021/05/29 07:38:36;;;;;;;5.40;2.70;;;31.80;43.20;;;;;;5048212;28;21017;-54
2021/05/29 07:41:02;;;;;;;5.20;2.63;;;31.80;41.40;;;;;;5048914;28;20392;-55
2021/05/29 07:43:27;;;;;;;6.32;2.60;;;31.30;41.10;;;;;;5052079;28;20412;-54
2021/05/29 07:45:53;;;;;;;5.10;2.50;;;29.90;42.60;;;;;;5061552;28;20863;-54
2021/05/29 07:48:19;;;;;;;6.80;2.65;;;29.40;42.30;;;;;;5050402;28;20457;-60
2021/05/29 07:50:58;;;;;;;8.18;2.65;;;30.10;42.00;;;;;;5061685;28;20384;-53
2021/05/29 07:53:25;;;;;;;6.25;2.60;;;30.10;41.20;;;;;;5050117;28;20431;-60
2021/05/29 07:55:52;;;;;;;5.32;2.70;;;31.00;42.30;;;;;;5053735;28;20410;-54
2021/05/29 07:58:17;;;;;;;6.07;2.50;;;30.20;40.80;;;;;;5059459;28;20467;-54
2021/05/29 08:00:45;;;;;;;5.90;2.40;;;30.90;40.00;;;;;;5053842;28;20489;-53
2021/05/29 08:03:11;;;;;;;6.18;2.70;;;31.30;40.00;;;;;;5064787;28;20380;-53
2021/05/29 08:05:36;;;;;;;4.80;2.10;;;29.90;41.30;;;;;;5047171;28;20451;-53
2021/05/29 08:08:02;;;;;;;5.30;2.63;;;30.70;41.80;;;;;;5049276;28;20390;-53
2021/05/29 08:10:28;;;;;;;7.32;2.40;;;30.40;41.90;;;;;;5047275;28;20393;-53
2021/05/29 08:12:54;;;;;;;4.80;2.38;;;29.90;42.80;;;;;;5047672;28;20393;-53
2021/05/29 08:15:20;;;;;;;5.80;2.33;;;29.10;43.70;;;;;;5049301;28;21120;-60
2021/05/29 08:17:45;;;;;;;6.10;2.20;;;28.60;42.70;;;;;;5050573;28;20393;-53
2021/05/29 08:20:12;;;;;;;5.53;2.00;;;27.80;42.70;;;;;;5066068;28;20451;-54
2021/05/29 08:22:38;;;;;;;5.82;2.20;;;28.10;42.60;;;;;;5052564;28;20475;-53
2021/05/29 08:25:04;;;;;;;5.00;1.70;;;29.30;42.20;;;;;;5052430;28;20806;-52
2021/05/29 08:27:30;;;;;;;7.30;2.10;;;29.20;39.90;;;;;;5051201;28;20874;-53
2021/05/29 08:29:57;;;;;;;6.60;2.50;;;28.70;41.20;;;;;;5037085;28;20407;-52
2021/05/29 08:32:23;;;;;;;5.50;2.28;;;29.50;40.30;;;;;;5048562;28;20393;-58
2021/05/29 08:34:49;;;;;;;5.03;2.10;;;29.50;39.90;;;;;;5051629;28;20388;-53
2021/05/29 08:37:14;;;;;;;6.20;2.20;;;29.40;40.40;;;;;;5051433;28;20431;-52
2021/05/29 08:39:40;;;;;;;6.05;1.90;;;29.50;40.60;;;;;;5053193;28;20865;-53
2021/05/29 08:42:06;;;;;;;6.57;2.13;;;29.40;38.90;;;;;;5052170;28;20747;-53
2021/05/29 08:44:33;;;;;;;4.57;1.80;;;30.10;38.80;;;;;;5050211;28;20416;-55
2021/05/29 08:47:02;;;;;;;6.80;2.30;;;29.90;38.50;;;;;;5051673;28;20777;-54
2021/05/29 08:49:28;;;;;;;5.50;2.30;;;30.00;39.40;;;;;;5051689;28;20404;-54
2021/05/29 08:51:56;;;;;;;4.57;1.90;;;30.00;39.00;;;;;;5053953;28;20432;-53
2021/05/29 08:54:22;;;;;;;5.93;1.90;;;29.90;39.90;;;;;;5050978;28;20851;-72
2021/05/29 08:56:47;;;;;;;6.00;2.20;;;29.60;40.10;;;;;;5049594;28;20404;-59
2021/05/29 08:59:13;;;;;;;6.20;2.00;;;30.10;39.50;;;;;;5052779;28;20374;-59
2021/05/29 09:01:38;;;;;;;5.60;2.00;;;30.20;39.10;;;;;;5051620;28;20409;-59
2021/05/29 09:04:06;;;;;;;5.60;1.90;;;29.90;38.90;;;;;;5053951;28;20432;-59
2021/05/29 09:06:31;;;;;;;5.03;2.10;;;29.70;38.60;;;;;;5053865;28;20856;-59
2021/05/29 09:09:04;;;;;;;5.60;2.00;;;29.80;39.10;;;;;;5055730;28;20507;-61
2021/05/29 09:11:49;;;;;;;6.80;2.10;;;29.90;39.90;;;;;;5051550;28;20429;-59
2021/05/29 09:14:21;;;;;;;5.43;2.30;;;30.50;38.40;;;;;;5052679;28;20404;-59
2021/05/29 09:17:10;;;;;;;5.88;2.30;;;31.80;37.70;;;;;;5046508;28;20389;-58
2021/05/29 09:20:12;;;;;;;6.05;2.20;;;32.30;37.30;;;;;;5047681;28;20457;-63
2021/05/29 09:22:53;;;;;;;5.18;2.20;;;31.60;37.50;;;;;;5020043;28;20405;-58
2021/05/29 09:25:23;;;;;;;6.53;2.75;;;30.90;38.10;;;;;;5050637;28;20492;-58
2021/05/29 09:27:57;;;;;;;6.05;3.15;;;30.00;39.80;;;;;;5050127;28;20472;-57
2021/05/29 09:30:41;;;;;;;6.18;2.30;;;29.70;40.30;;;;;;5047675;28;20505;-71
2021/05/29 09:33:27;;;;;;;5.68;2.30;;;30.10;41.00;;;;;;5048686;28;20397;-58
2021/05/29 09:36:04;;;;;;;5.50;2.40;;;31.10;38.80;;;;;;5049513;28;20388;-58
2021/05/29 09:38:55;;;;;;;5.60;2.20;;;32.00;38.80;;;;;;5048583;28;20421;-58
2021/05/29 09:41:26;;;;;;;6.13;2.50;;;30.70;38.80;;;;;;5049994;28;20890;-59
2021/05/29 09:44:02;;;;;;;5.80;2.38;;;30.10;40.20;;;;;;5050491;28;20461;-58
2021/05/29 09:46:28;;;;;;;4.90;2.40;;;29.70;40.30;;;;;;5046710;28;20389;-58
2021/05/29 09:48:59;;;;;;;6.75;2.50;;;29.20;40.40;;;;;;5048567;28;20755;-57
2021/05/29 09:51:32;;;;;;;5.53;2.50;;;29.40;41.00;;;;;;5046561;28;20408;-70
2021/05/29 09:54:06;;;;;;;5.57;2.40;;;28.40;40.40;;;;;;5039688;28;20468;-57
2021/05/29 09:56:37;;;;;;;5.80;2.08;;;26.70;43.10;;;;;;5049658;28;20460;-57
2021/05/29 09:59:10;;;;;;;5.65;2.40;;;25.80;42.90;;;;;;5050984;28;20381;-57
2021/05/29 10:01:53;;;;;;;7.25;2.67;;;24.10;44.30;;;;;;5049782;28;20394;-57
2021/05/29 10:04:37;;;;;;;5.85;2.63;;;23.70;46.10;;;;;;5051047;28;20412;-58
2021/05/29 10:07:13;;;;;;;5.80;2.13;;;25.60;44.80;;;;;;5050715;28;20389;-58
2021/05/29 10:09:40;;;;;;;4.95;2.08;;;26.50;44.00;;;;;;5065263;28;20890;-58
2021/05/29 10:12:07;;;;;;;7.30;2.50;;;25.80;44.80;;;;;;5050078;28;20381;-58
2021/05/29 10:14:34;;;;;;;5.78;2.20;;;24.10;45.60;;;;;;5050003;28;20384;-58
2021/05/29 10:17:03;;;;;;;6.88;2.55;;;23.50;46.30;;;;;;5050312;28;20416;-58
2021/05/29 10:19:30;;;;;;;4.90;1.80;;;24.30;45.00;;;;;;5049785;28;20409;-58
2021/05/29 10:21:56;;;;;;;5.80;2.10;;;26.00;43.20;;;;;;5050463;28;20378;-58
2021/05/29 10:24:24;;;;;;;5.78;1.92;;;26.80;42.90;;;;;;5049030;28;20397;-70
2021/05/29 10:26:53;;;;;;;4.72;1.60;;;27.00;42.80;;;;;;5048903;28;20507;-63
2021/05/29 10:29:27;;;;;;;6.32;2.10;;;26.00;42.60;;;;;;5049948;28;20405;-63
2021/05/29 10:32:16;;;;;;;4.93;1.90;;;26.00;41.60;;;;;;5050129;28;20378;-59
2021/05/29 10:35:05;;;;;;;5.20;1.80;;;26.20;41.10;;;;;;5054294;28;21023;-58
2021/05/29 10:37:38;;;;;;;5.30;1.80;;;25.20;42.00;;;;;;5031085;28;20388;-62
2021/05/29 10:40:24;;;;;;;4.93;2.10;;;24.90;42.70;;;;;;5050219;28;20393;-61
2021/05/29 10:43:15;;;;;;;7.72;2.75;;;25.00;43.10;;;;;;5049396;28;20390;-59
2021/05/29 10:45:50;;;;;;;4.73;1.90;;;24.50;45.20;;;;;;5055104;28;20387;-57
2021/05/29 10:48:17;;;;;;;6.30;2.22;;;22.80;46.60;;;;;;5057653;28;20890;-60
2021/05/29 10:50:56;;;;;;;4.68;1.70;;;22.30;47.50;;;;;;5039815;28;20676;-59
2021/05/29 10:53:34;;;;;;;5.38;2.10;;;22.90;46.90;;;;;;5055954;28;20466;-69
2021/05/29 10:56:18;;;;;;;4.80;1.70;;;22.90;46.00;;;;;;5058435;28;20497;-58
2021/05/29 10:59:00;;;;;;;6.60;1.98;;;23.20;44.50;;;;;;5055512;28;20455;-59
2021/05/29 11:01:36;;;;;;;4.60;1.90;;;23.10;45.10;;;;;;5055100;28;20868;-71
2021/05/29 11:04:23;;;;;;;4.78;1.95;;;23.10;45.80;;;;;;5059986;28;20408;-60
2021/05/29 11:06:56;;;;;;;11.40;3.92;;;23.20;44.20;;;;;;5055533;28;20875;-58
2021/05/29 11:09:24;;;;;;;4.27;1.63;;;23.20;46.00;;;;;;5058048;28;20389;-55
2021/05/29 11:11:55;;;;;;;5.10;1.52;;;23.70;45.40;;;;;;5058996;28;20387;-61
2021/05/29 11:14:51;;;;;;;5.30;2.00;;;23.80;45.60;;;;;;5059895;28;20407;-59
2021/05/29 11:17:28;;;;;;;6.68;1.60;;;23.80;44.70;;;;;;5055519;28;20496;-58
2021/05/29 11:20:17;;;;;;;5.45;1.40;;;24.50;43.40;;;;;;5057389;28;20693;-57
2021/05/29 11:22:48;;;;;;;4.40;1.40;;;24.50;42.90;;;;;;5058659;28;20419;-57
2021/05/29 11:25:17;;;;;;;4.50;1.30;;;24.20;42.00;;;;;;5061714;28;20404;-57
2021/05/29 11:27:45;;;;;;;4.53;1.40;;;24.00;42.40;;;;;;5068574;28;20384;-61
2021/05/29 11:30:22;;;;;;;5.97;1.70;;;23.70;43.00;;;;;;5068946;28;20798;-57
2021/05/29 11:35:45;;;;;;;4.88;1.70;;;24.00;44.30;;;;;;5068190;28;20372;-58
2021/05/29 11:38:20;;;;;;;5.10;1.48;;;23.80;45.00;;;;;;5060210;28;20372;-53
2021/05/29 11:40:50;;;;;;;4.80;1.60;;;23.10;45.10;;;;;;5059281;28;20423;-53
2021/05/29 11:43:40;;;;;;;5.35;2.17;;;22.80;45.50;;;;;;5069372;28;20391;-53
2021/05/29 11:46:11;;;;;;;5.85;1.80;;;22.50;45.80;;;;;;5057380;28;20434;-54
2021/05/29 11:48:45;;;;;;;5.60;1.60;;;22.50;46.30;;;;;;5066861;28;20395;-53
2021/05/29 11:51:13;;;;;;;4.60;1.80;;;22.00;46.70;;;;;;5061690;28;20397;-52
2021/05/29 11:53:45;;;;;;;8.03;2.00;;;21.70;47.60;;;;;;5062396;28;20377;-52
2021/05/29 11:56:12;;;;;;;5.40;1.77;;;21.80;46.90;;;;;;5061753;28;20476;-53
2021/05/29 11:58:48;;;;;;;4.20;1.40;;;21.80;47.20;;;;;;5064589;28;20378;-53
2021/05/29 12:01:16;;;;;;;4.28;1.58;;;21.90;47.80;;;;;;5060299;28;20389;-53
2021/05/29 12:03:48;;;;;;;3.90;1.30;;;22.20;48.50;;;;;;5051587;28;20934;-54
2021/05/29 12:06:38;;;;;;;4.78;1.63;;;22.80;46.70;;;;;;5063579;28;20391;-53
2021/05/29 12:09:15;;;;;;;5.65;1.50;;;23.00;47.30;;;;;;5067753;28;20402;-53
2021/05/29 12:12:06;;;;;;;4.60;1.20;;;23.10;47.60;;;;;;5071713;28;20378;-55
2021/05/29 12:14:37;;;;;;;5.75;1.60;;;22.20;47.30;;;;;;5071584;28;20392;-54
2021/05/29 12:17:15;;;;;;;6.63;1.45;;;21.40;48.00;;;;;;5072043;28;20379;-53
2021/05/29 12:19:49;;;;;;;4.50;1.50;;;21.30;48.70;;;;;;5070619;28;20443;-52
2021/05/29 12:22:15;;;;;;;3.92;1.20;;;21.80;48.00;;;;;;5073068;28;20375;-53
2021/05/29 12:24:48;;;;;;;4.27;1.30;;;22.40;46.50;;;;;;5072158;28;20399;-53
2021/05/29 12:27:22;;;;;;;4.20;1.23;;;22.60;46.70;;;;;;5072417;28;20388;-58
2021/05/29 12:29:48;;;;;;;4.80;1.30;;;22.80;46.50;;;;;;5071951;28;20445;-53
2021/05/29 12:32:32;;;;;;;5.70;1.40;;;22.80;46.20;;;;;;5071829;28;20446;-53
2021/05/29 12:34:58;;;;;;;4.20;1.50;;;22.50;46.40;;;;;;5072359;28;20380;-53
2021/05/29 12:37:31;;;;;;;4.20;1.50;;;22.50;46.80;;;;;;5072444;28;20414;-53
2021/05/29 12:40:12;;;;;;;5.28;1.20;;;21.70;45.80;;;;;;5072722;28;20388;-53
2021/05/29 12:42:52;;;;;;;3.88;1.10;;;22.90;46.00;;;;;;5071568;28;20916;-54
2021/05/29 12:45:24;;;;;;;4.40;1.60;;;22.40;45.80;;;;;;5072701;28;20556;-53
2021/05/29 12:48:05;;;;;;;4.38;1.10;;;22.60;46.40;;;;;;5071238;28;20440;-53
2021/05/29 12:50:37;;;;;;;3.80;1.10;;;23.30;46.40;;;;;;5071198;28;20379;-53
2021/05/29 12:53:10;;;;;;;3.80;1.10;;;23.40;45.20;;;;;;5072064;28;20850;-54
2021/05/29 12:55:35;;;;;;;4.65;1.30;;;23.10;45.30;;;;;;5071807;28;20392;-54
2021/05/29 12:58:24;;;;;;;4.60;1.20;;;22.90;45.70;;;;;;5072043;28;20490;-53
2021/05/29 13:09:10;;;;;;;3.83;1.10;;;22.80;46.90;;;;;;5051971;28;20376;-53
2021/05/29 13:11:37;;;;;;;3.80;1.20;;;22.50;46.70;;;;;;5051250;28;20428;-53
2021/05/29 13:14:12;;;;;;;4.00;1.30;;;22.70;46.80;;;;;;5051817;28;20392;-53
2021/05/29 13:16:58;;;;;;;4.20;1.10;;;22.80;45.70;;;;;;5050766;28;20409;-54
2021/05/29 13:19:24;;;;;;;4.55;1.35;;;23.00;45.80;;;;;;5050844;28;20413;-53